Decoded Metar for EVRA (RIGA AIRPORT in LATVIA) (IATA:N/A) | Meteo·Mobile Aviation Weather
aviador You're here:

EVRA Decoded Metar

RIGA AIRPORT in LATVIA
Report Time2019-12-15 19:50:00
UTC Time2019-12-15 20:15:08
Flight Rules mvfr MVFR
Wind170° at 14 kt
W.Decomp.*RWY 18: 13.4 kt HW 4.1 kt LCW
Visibility9999 m
Phenomena:Light Shower Rain
Clouds:Scattered 010 Hf
Broken CB 012 Hf
Overcast 016 Hf
Expected CloudBase > 400 ft AGL from Temp-Dew spread
Ceiling1,200 ft
Temp02°C (ISA -13)
Dew Point01°C (93% RH)
AAT-4.9°C
QNH0996 hPa
Density Alt-866 ft
Elevation33 ft
Report Wrong Elevation
Raw Report
EVRA 151950Z 17014KT 9999 -SHRA SCT010 BKN012CB OVC016 02/01 Q0996
R18/290195 NOSIG=

Extra information for EVRA:More info

Metar Taf Metar & Taf Last 4 Metars F.Rules Stats Wind Profile Meteogram Temp Stats Airport Information Weather charts Add Link Nearby VenuesMetar ALERT Operation Metar Decoded Social comments